Terminal Aerodrome Forecast
Issued by NWS

Home | Current Version | Previous Version | Text Only | Print | Product List | Glossary On
Versions: 1 2 3 4 5 6 7 8 9 10 11 12 13 14 15 16
000
FTUS42 KTBW 170500
TAFRSW
TAF
KRSW 170538Z 1706/1806 00000KT P6SM BKN090 BKN250
     FM171200 00000KT P6SM VCTS SCT035CB BKN250
     FM171800 27010KT P6SM VCTS SCT020CB BKN030
     FM172300 24006KT P6SM VCTS SCT035CB BKN060=

USA.gov is the U.S. government's official web portal to all federal, state and local government web resources and services.